createdAt,value
2022-07-25T00:00:13.851Z,76.20
2022-07-25T00:02:41.943Z,76.10
2022-07-25T00:05:10.309Z,76.20
2022-07-25T00:07:39.896Z,76.60
2022-07-25T00:10:09.188Z,76.50
2022-07-25T00:12:37.352Z,76.60
2022-07-25T00:15:06.265Z,76.90
2022-07-25T00:17:34.560Z,77.10
2022-07-25T00:20:02.908Z,77.20
2022-07-25T00:22:31.041Z,77.20
2022-07-25T00:25:00.624Z,77.30
2022-07-25T00:27:28.821Z,77.60
2022-07-25T00:29:56.909Z,77.80
2022-07-25T00:32:24.988Z,77.80
2022-07-25T00:34:53.199Z,77.90
2022-07-25T00:37:21.339Z,77.80
2022-07-25T00:39:49.368Z,77.80
2022-07-25T00:42:18.712Z,77.90
2022-07-25T00:44:46.729Z,77.90
2022-07-25T00:47:14.751Z,77.90
2022-07-25T00:49:42.716Z,77.70
2022-07-25T00:52:11.103Z,77.60
2022-07-25T00:54:39.449Z,77.60
2022-07-25T00:57:07.613Z,77.80
2022-07-25T00:59:37.083Z,78.00
2022-07-25T01:02:05.185Z,77.90
2022-07-25T01:04:33.511Z,78.00
2022-07-25T01:07:02.080Z,78.00
2022-07-25T01:09:30.601Z,78.20
2022-07-25T01:11:58.736Z,78.20
2022-07-25T01:14:26.960Z,78.10
2022-07-25T01:16:56.377Z,78.10
2022-07-25T01:19:24.400Z,78.40
2022-07-25T01:21:55.988Z,78.40
2022-07-25T01:24:24.159Z,78.40
2022-07-25T01:26:52.246Z,78.30
2022-07-25T01:29:20.364Z,78.10
2022-07-25T01:31:48.552Z,78.30
2022-07-25T01:34:16.591Z,78.20
2022-07-25T01:36:44.746Z,78.20
2022-07-25T01:39:14.314Z,78.40
2022-07-25T01:41:42.377Z,78.40
2022-07-25T01:44:10.540Z,78.50
2022-07-25T01:46:38.701Z,78.50
2022-07-25T01:49:06.871Z,78.60
2022-07-25T01:51:35.004Z,78.60
2022-07-25T01:54:03.423Z,78.50
2022-07-25T01:56:35.227Z,78.60
2022-07-25T01:59:04.126Z,78.40
2022-07-25T02:01:32.325Z,78.30
2022-07-25T02:04:00.343Z,78.30
2022-07-25T02:06:28.485Z,78.30
2022-07-25T02:08:56.545Z,78.40
2022-07-25T02:11:24.552Z,78.30
2022-07-25T02:13:53.905Z,78.30
2022-07-25T02:16:28.909Z,78.10
2022-07-25T02:18:57.813Z,78.10
2022-07-25T02:21:26.008Z,78.90
2022-07-25T02:23:54.264Z,78.00
2022-07-25T02:26:22.391Z,77.90
2022-07-25T02:28:51.129Z,78.20
2022-07-25T02:31:20.681Z,78.20
2022-07-25T02:33:48.946Z,78.10
2022-07-25T02:36:17.285Z,77.90
2022-07-25T02:38:45.578Z,77.70
2022-07-25T02:41:13.606Z,77.70
2022-07-25T02:43:41.678Z,77.70
2022-07-25T02:46:09.808Z,77.90
2022-07-25T02:48:39.338Z,77.80
2022-07-25T02:51:07.643Z,77.80
2022-07-25T02:53:56.036Z,77.90
2022-07-25T02:56:23.728Z,78.10
2022-07-25T02:58:51.735Z,78.30
2022-07-25T03:01:19.943Z,78.40
2022-07-25T03:03:49.418Z,78.50
2022-07-25T03:06:17.583Z,78.70
2022-07-25T03:08:45.598Z,78.90
2022-07-25T03:11:14.288Z,79.00
2022-07-25T03:13:42.279Z,79.20
2022-07-25T03:16:10.870Z,79.30
2022-07-25T03:18:39.785Z,79.40
2022-07-25T03:21:09.533Z,79.60
2022-07-25T03:23:37.570Z,79.70
2022-07-25T03:26:05.776Z,79.70
2022-07-25T03:28:33.816Z,79.80
2022-07-25T03:31:01.910Z,80.00
2022-07-25T03:33:30.172Z,80.20
2022-07-25T03:35:58.254Z,80.30
2022-07-25T03:38:27.875Z,80.40
2022-07-25T03:40:56.343Z,80.40
2022-07-25T03:43:24.486Z,80.50
2022-07-25T03:45:52.538Z,80.70
2022-07-25T03:48:20.593Z,81.00
2022-07-25T03:50:48.626Z,81.10
2022-07-25T03:53:16.795Z,81.10
2022-07-25T03:55:46.290Z,81.10
2022-07-25T03:58:14.347Z,81.10
2022-07-25T04:00:42.385Z,81.30
2022-07-25T04:03:10.490Z,81.40
2022-07-25T04:05:38.502Z,81.40
2022-07-25T04:08:07.052Z,81.50
2022-07-25T04:10:35.233Z,81.60
2022-07-25T04:13:04.805Z,81.50
2022-07-25T04:15:32.908Z,81.60
2022-07-25T04:18:01.997Z,81.70
2022-07-25T04:20:30.859Z,81.60
2022-07-25T04:22:58.849Z,81.70
2022-07-25T04:25:27.115Z,81.80
2022-07-25T04:27:55.150Z,82.00
2022-07-25T04:30:25.034Z,82.00
2022-07-25T04:32:53.590Z,82.30
2022-07-25T04:35:22.110Z,82.30
2022-07-25T04:37:50.523Z,82.30
2022-07-25T04:40:18.626Z,82.30
2022-07-25T04:42:46.805Z,82.40
2022-07-25T04:45:17.682Z,82.30
2022-07-25T04:47:47.679Z,82.20
2022-07-25T04:50:15.968Z,82.20
2022-07-25T04:52:44.195Z,82.20
2022-07-25T04:55:12.632Z,82.20
2022-07-25T04:57:40.679Z,82.20
2022-07-25T05:00:11.272Z,82.20
2022-07-25T05:02:39.522Z,82.10
2022-07-25T05:05:21.021Z,82.10
2022-07-25T05:07:50.879Z,82.10
2022-07-25T05:10:19.399Z,82.10
2022-07-25T05:12:47.438Z,82.10
2022-07-25T05:15:16.097Z,81.90
2022-07-25T05:17:44.514Z,82.00
2022-07-25T05:20:14.978Z,82.00
2022-07-25T05:22:44.032Z,82.00
2022-07-25T05:25:13.305Z,81.90
2022-07-25T05:27:41.772Z,81.90
2022-07-25T05:30:11.754Z,81.80
2022-07-25T05:32:40.252Z,81.70
2022-07-25T05:35:10.417Z,81.60
2022-07-25T05:37:40.161Z,81.50
2022-07-25T05:40:09.144Z,81.50
2022-07-25T05:42:37.147Z,81.70
2022-07-25T05:45:06.027Z,81.70
2022-07-25T05:47:34.230Z,81.70
2022-07-25T05:50:03.100Z,81.70
2022-07-25T05:52:31.241Z,81.90
2022-07-25T05:55:00.712Z,81.90
2022-07-25T05:57:28.767Z,81.90
2022-07-25T05:59:56.911Z,81.80
2022-07-25T06:02:25.190Z,81.90
2022-07-25T06:04:53.435Z,81.70
2022-07-25T06:07:21.437Z,81.70
2022-07-25T06:09:49.450Z,81.40
2022-07-25T06:12:18.975Z,81.10
2022-07-25T06:14:47.023Z,80.70
2022-07-25T06:17:15.001Z,80.60
2022-07-25T06:19:42.986Z,80.60
2022-07-25T06:22:11.486Z,80.40
2022-07-25T06:24:39.739Z,80.20
2022-07-25T06:27:08.460Z,80.20
2022-07-25T06:29:39.439Z,79.80
2022-07-25T06:32:07.912Z,79.60
2022-07-25T06:34:35.989Z,79.60
2022-07-25T06:37:04.342Z,79.50
2022-07-25T06:39:32.351Z,79.00
2022-07-25T06:42:01.784Z,78.80
2022-07-25T06:44:29.871Z,78.90
2022-07-25T06:46:59.301Z,79.00
2022-07-25T06:49:27.408Z,78.90
2022-07-25T06:51:55.514Z,78.90
2022-07-25T06:54:23.672Z,78.30
2022-07-25T06:56:51.690Z,78.30
2022-07-25T06:59:19.895Z,78.10
2022-07-25T07:01:51.442Z,77.90
2022-07-25T07:04:21.503Z,77.50
2022-07-25T07:06:49.537Z,77.40
2022-07-25T07:09:17.547Z,77.20
2022-07-25T07:11:45.608Z,76.50
2022-07-25T07:14:13.602Z,76.10
2022-07-25T07:16:42.472Z,75.80
2022-07-25T07:19:12.097Z,75.60
2022-07-25T07:21:42.215Z,74.60
2022-07-25T07:24:24.438Z,72.80
2022-07-25T07:26:53.779Z,72.60
2022-07-25T07:29:21.910Z,71.20
2022-07-25T07:31:50.005Z,71.10
2022-07-25T07:34:18.306Z,70.60
2022-07-25T07:36:47.994Z,69.40
2022-07-25T07:39:16.597Z,68.90
2022-07-25T07:41:44.794Z,66.70
2022-07-25T07:44:13.019Z,65.60
2022-07-25T07:46:41.140Z,65.00
2022-07-25T07:49:09.925Z,64.70
2022-07-25T07:51:38.532Z,65.00
2022-07-25T07:54:25.411Z,65.60
2022-07-25T07:56:53.415Z,66.10
2022-07-25T07:59:22.038Z,67.00
2022-07-25T08:01:50.315Z,67.60
2022-07-25T08:04:18.397Z,67.80
2022-07-25T08:06:46.550Z,68.60
2022-07-25T08:09:16.014Z,69.30
2022-07-25T08:11:44.045Z,69.70
2022-07-25T08:14:12.435Z,70.20
2022-07-25T08:16:40.773Z,70.30
2022-07-25T08:19:08.930Z,70.30
2022-07-25T08:21:36.938Z,70.40
2022-07-25T08:24:05.807Z,70.60
2022-07-25T08:26:37.164Z,70.90
2022-07-25T08:29:18.736Z,71.00
2022-07-25T08:31:48.241Z,71.20
2022-07-25T08:34:16.362Z,71.40
2022-07-25T08:36:44.554Z,71.60
2022-07-25T08:39:13.604Z,71.70
2022-07-25T08:41:43.308Z,71.80
2022-07-25T08:44:12.481Z,72.10
2022-07-25T08:46:42.633Z,72.40
2022-07-25T08:49:11.207Z,72.80
2022-07-25T08:51:40.793Z,73.20
2022-07-25T08:54:10.184Z,73.50
2022-07-25T08:56:38.506Z,73.40
2022-07-25T08:59:09.767Z,73.60
2022-07-25T09:01:40.571Z,74.10
2022-07-25T09:04:09.683Z,74.70
2022-07-25T09:06:38.572Z,73.70
2022-07-25T09:09:08.752Z,73.70
2022-07-25T09:11:38.602Z,73.80
2022-07-25T09:14:11.054Z,74.20
2022-07-25T09:16:45.567Z,74.50
2022-07-25T09:19:15.632Z,74.60
2022-07-25T09:21:45.988Z,74.60
2022-07-25T09:24:16.990Z,74.90
2022-07-25T09:26:49.803Z,75.30
2022-07-25T09:29:24.197Z,75.10
2022-07-25T09:31:53.054Z,74.60
2022-07-25T09:34:36.243Z,75.10
2022-07-25T09:37:05.995Z,75.50
2022-07-25T09:39:35.979Z,76.00
2022-07-25T09:42:04.475Z,76.00
2022-07-25T09:44:33.881Z,76.10
2022-07-25T09:47:11.871Z,76.10
2022-07-25T09:49:43.835Z,76.00
2022-07-25T09:52:12.953Z,75.90
2022-07-25T09:54:41.568Z,76.10
2022-07-25T09:57:09.578Z,76.20
2022-07-25T09:59:39.620Z,76.10
2022-07-25T10:02:10.583Z,76.00
2022-07-25T10:04:47.040Z,76.20
2022-07-25T10:07:20.513Z,76.00
2022-07-25T10:09:50.827Z,75.90
2022-07-25T10:12:22.147Z,75.70
2022-07-25T10:15:09.521Z,73.60
2022-07-25T10:17:39.158Z,71.50
2022-07-25T10:20:11.251Z,71.80
2022-07-25T10:22:55.947Z,71.70
2022-07-25T10:25:25.569Z,71.50
2022-07-25T10:28:01.112Z,71.20
2022-07-25T10:30:37.478Z,71.40
2022-07-25T10:33:12.534Z,71.20
2022-07-25T10:35:41.234Z,70.20
2022-07-25T10:38:10.713Z,69.40
2022-07-25T10:40:40.502Z,69.50
2022-07-25T10:43:10.927Z,69.80
2022-07-25T10:45:45.669Z,69.80
2022-07-25T10:48:22.751Z,69.90
2022-07-25T10:50:59.510Z,70.10
2022-07-25T10:53:34.076Z,70.20
2022-07-25T10:56:06.878Z,70.30
2022-07-25T10:58:50.651Z,70.30
2022-07-25T11:01:25.293Z,70.90
2022-07-25T11:03:54.811Z,70.70
2022-07-25T11:06:34.863Z,70.80
2022-07-25T11:09:03.436Z,70.40
2022-07-25T11:11:40.380Z,69.70
2022-07-25T11:14:16.872Z,69.90
2022-07-25T11:16:47.656Z,69.80
2022-07-25T11:19:23.782Z,69.90
2022-07-25T11:21:54.574Z,70.10
2022-07-25T11:24:22.678Z,70.10
2022-07-25T11:26:52.313Z,69.40
2022-07-25T11:29:24.956Z,68.10
2022-07-25T11:31:56.177Z,67.60
2022-07-25T11:34:26.361Z,67.00
2022-07-25T11:36:57.373Z,65.80
2022-07-25T11:39:27.675Z,65.70
2022-07-25T11:42:04.117Z,66.00
2022-07-25T11:44:34.001Z,66.30
2022-07-25T11:47:04.005Z,66.30
2022-07-25T11:49:32.111Z,66.60
2022-07-25T11:52:00.128Z,66.40
2022-07-25T11:54:28.236Z,66.10
2022-07-25T11:56:56.343Z,66.30
2022-07-25T11:59:25.333Z,66.10
2022-07-25T12:01:53.480Z,66.40
2022-07-25T12:04:23.153Z,66.50
2022-07-25T12:06:51.295Z,67.00
2022-07-25T12:09:21.567Z,66.50
2022-07-25T12:11:50.679Z,67.00
2022-07-25T12:14:18.848Z,66.80
2022-07-25T12:16:46.955Z,67.00
2022-07-25T12:19:23.529Z,67.30
2022-07-25T12:21:52.004Z,67.60
2022-07-25T12:24:20.023Z,67.50
2022-07-25T12:26:48.031Z,66.50
2022-07-25T12:29:16.044Z,66.50
2022-07-25T12:31:44.203Z,67.00
2022-07-25T12:34:12.252Z,67.50
2022-07-25T12:36:45.184Z,67.80
2022-07-25T12:39:13.580Z,68.40
2022-07-25T12:41:42.699Z,69.30
2022-07-25T12:44:11.245Z,70.00
2022-07-25T12:46:47.224Z,70.70
2022-07-25T12:49:17.467Z,71.20
2022-07-25T12:51:46.965Z,71.20
2022-07-25T12:54:21.627Z,71.30
2022-07-25T12:56:50.419Z,71.80
2022-07-25T12:59:18.432Z,72.40
2022-07-25T13:01:46.578Z,72.50
2022-07-25T13:04:14.722Z,72.50
2022-07-25T13:06:42.845Z,72.40
2022-07-25T13:09:12.194Z,72.30
2022-07-25T13:11:40.406Z,72.10
2022-07-25T13:14:08.385Z,72.20
2022-07-25T13:16:38.032Z,71.90
2022-07-25T13:19:06.651Z,71.70
2022-07-25T13:21:35.177Z,70.60
2022-07-25T13:24:03.199Z,69.30
2022-07-25T13:26:33.157Z,69.00
2022-07-25T13:29:01.686Z,69.10
2022-07-25T13:31:29.817Z,68.60
2022-07-25T13:33:58.357Z,68.10
2022-07-25T13:36:27.498Z,68.00
2022-07-25T13:38:55.643Z,68.10
2022-07-25T13:41:23.674Z,68.00
2022-07-25T13:43:53.908Z,66.80
2022-07-25T13:46:22.322Z,65.70
2022-07-25T13:48:50.821Z,64.90
2022-07-25T13:51:18.973Z,65.00
2022-07-25T13:53:47.628Z,65.10
2022-07-25T13:56:15.704Z,65.10
2022-07-25T13:58:43.770Z,65.50
2022-07-25T14:01:17.436Z,64.90
2022-07-25T14:03:45.808Z,64.70
2022-07-25T14:06:13.824Z,65.10
2022-07-25T14:08:42.122Z,65.50
2022-07-25T14:11:10.133Z,64.80
2022-07-25T14:13:38.263Z,65.30
2022-07-25T14:16:06.691Z,64.50
2022-07-25T14:18:36.124Z,63.70
2022-07-25T14:21:04.248Z,63.10
2022-07-25T14:23:32.245Z,62.50
2022-07-25T14:26:00.303Z,62.50
2022-07-25T14:28:28.399Z,62.50
2022-07-25T14:30:56.815Z,62.50
2022-07-25T14:33:24.907Z,62.10
2022-07-25T14:35:54.622Z,61.90
2022-07-25T14:38:22.932Z,61.90
2022-07-25T14:40:50.988Z,61.80
2022-07-25T14:43:19.052Z,61.90
2022-07-25T14:45:47.462Z,61.90
2022-07-25T14:48:15.469Z,60.90
2022-07-25T14:50:43.540Z,60.30
2022-07-25T14:53:13.627Z,60.60
2022-07-25T14:55:41.741Z,60.90
2022-07-25T14:58:09.740Z,61.00
2022-07-25T15:00:41.727Z,60.10
2022-07-25T15:03:10.367Z,59.80
2022-07-25T15:05:39.429Z,59.30
2022-07-25T15:08:07.812Z,58.60
2022-07-25T15:10:37.343Z,58.60
2022-07-25T15:13:30.061Z,58.00
2022-07-25T15:15:53.452Z,57.50
2022-07-25T15:18:21.566Z,57.70
2022-07-25T15:20:51.862Z,56.30
2022-07-25T15:23:21.191Z,56.10
2022-07-25T15:26:06.301Z,56.10
2022-07-25T15:28:35.857Z,55.60
2022-07-25T15:31:04.387Z,56.00
2022-07-25T15:33:32.480Z,55.30
2022-07-25T15:36:01.356Z,54.60
2022-07-25T15:38:30.842Z,54.30
2022-07-25T15:41:00.484Z,54.00
2022-07-25T15:43:28.970Z,54.30
2022-07-25T15:45:57.070Z,54.20
2022-07-25T15:48:27.560Z,54.40
2022-07-25T15:50:56.065Z,54.80
2022-07-25T15:53:24.305Z,54.50
2022-07-25T15:55:52.937Z,54.00
2022-07-25T15:58:22.391Z,53.80
2022-07-25T16:00:50.627Z,54.00
2022-07-25T16:03:18.690Z,54.00
2022-07-25T16:05:46.759Z,54.20
2022-07-25T16:08:14.781Z,54.00
2022-07-25T16:10:42.893Z,53.60
2022-07-25T16:13:10.958Z,53.80
2022-07-25T16:15:40.579Z,53.20
2022-07-25T16:18:08.757Z,53.10
2022-07-25T16:20:36.785Z,53.20
2022-07-25T16:23:05.169Z,53.30
2022-07-25T16:25:33.199Z,53.40
2022-07-25T16:28:01.446Z,53.70
2022-07-25T16:30:29.715Z,54.30
2022-07-25T16:32:59.240Z,54.90
2022-07-25T16:35:27.437Z,55.60
2022-07-25T16:37:55.603Z,55.90
2022-07-25T16:40:28.672Z,56.20
2022-07-25T16:42:59.903Z,56.50
2022-07-25T16:45:28.658Z,56.90
2022-07-25T16:47:58.217Z,56.80
2022-07-25T16:50:26.404Z,57.10
2022-07-25T16:52:54.867Z,57.50
2022-07-25T16:55:22.934Z,58.00
2022-07-25T16:57:51.319Z,58.10
2022-07-25T17:00:20.145Z,58.20
2022-07-25T17:02:48.551Z,58.40
2022-07-25T17:05:18.452Z,57.80
2022-07-25T17:07:47.355Z,57.40
2022-07-25T17:10:15.397Z,57.00
2022-07-25T17:12:43.593Z,56.80
2022-07-25T17:15:12.462Z,56.70
2022-07-25T17:17:40.742Z,57.00
2022-07-25T17:20:09.924Z,57.10
2022-07-25T17:22:39.474Z,57.30
2022-07-25T17:25:08.580Z,57.50
2022-07-25T17:27:37.243Z,57.50
2022-07-25T17:30:06.476Z,57.40
2022-07-25T17:32:34.623Z,57.50
2022-07-25T17:35:02.779Z,57.50
2022-07-25T17:37:31.252Z,57.70
2022-07-25T17:40:01.598Z,57.50
2022-07-25T17:42:29.813Z,56.90
2022-07-25T17:44:57.827Z,56.90
2022-07-25T17:47:25.889Z,56.80
2022-07-25T17:49:54.121Z,57.20
2022-07-25T17:52:22.122Z,57.60
2022-07-25T17:54:50.147Z,58.00
2022-07-25T17:57:19.773Z,58.40
2022-07-25T17:59:47.801Z,58.70
2022-07-25T18:02:15.955Z,59.10
2022-07-25T18:04:44.687Z,59.90
2022-07-25T18:07:12.806Z,61.00
2022-07-25T18:09:40.935Z,61.70
2022-07-25T18:12:09.273Z,62.00
2022-07-25T18:14:38.902Z,62.10
2022-07-25T18:17:07.243Z,62.20
2022-07-25T18:19:35.291Z,62.10
2022-07-25T18:22:03.421Z,62.30
2022-07-25T18:24:31.854Z,62.40
2022-07-25T18:27:00.304Z,62.90
2022-07-25T18:29:28.440Z,63.40
2022-07-25T18:31:57.959Z,63.80
2022-07-25T18:34:26.517Z,64.20
2022-07-25T18:36:54.841Z,64.60
2022-07-25T18:39:22.902Z,65.10
2022-07-25T18:41:53.880Z,65.50
2022-07-25T18:44:22.000Z,65.90
2022-07-25T18:46:50.693Z,66.40
2022-07-25T18:49:20.921Z,66.70
2022-07-25T18:51:48.994Z,67.40
2022-07-25T18:54:17.324Z,67.90
2022-07-25T18:56:45.711Z,68.20
2022-07-25T18:59:13.864Z,68.50
2022-07-25T19:01:42.845Z,68.80
2022-07-25T19:04:11.282Z,69.10
2022-07-25T19:06:40.921Z,69.10
2022-07-25T19:09:10.202Z,69.30
2022-07-25T19:11:42.201Z,69.60
2022-07-25T19:14:10.936Z,70.10
2022-07-25T19:16:39.568Z,70.30
2022-07-25T19:19:09.520Z,70.50
2022-07-25T19:21:38.166Z,70.50
2022-07-25T19:24:08.468Z,70.70
2022-07-25T19:26:36.828Z,70.90
2022-07-25T19:29:06.935Z,71.90
2022-07-25T19:31:35.610Z,71.30
2022-07-25T19:34:03.753Z,71.80
2022-07-25T19:36:32.517Z,72.10
2022-07-25T19:39:00.814Z,72.30
2022-07-25T19:41:31.486Z,72.40
2022-07-25T19:43:59.518Z,72.60
2022-07-25T19:46:31.283Z,72.70
2022-07-25T19:48:59.624Z,73.00
2022-07-25T19:51:28.006Z,73.40
2022-07-25T19:53:56.274Z,73.60
2022-07-25T19:56:24.297Z,73.70
2022-07-25T19:58:53.842Z,73.80
2022-07-25T20:01:22.000Z,74.00
2022-07-25T20:03:50.251Z,74.20
2022-07-25T20:06:20.479Z,75.40
2022-07-25T20:08:49.016Z,74.60
2022-07-25T20:11:17.208Z,75.00
2022-07-25T20:13:45.243Z,75.30
2022-07-25T20:16:14.778Z,75.80
2022-07-25T20:18:43.077Z,76.00
2022-07-25T20:21:12.560Z,76.30
2022-07-25T20:23:41.093Z,76.90
2022-07-25T20:26:09.147Z,77.10
2022-07-25T20:28:38.031Z,77.40
2022-07-25T20:31:06.586Z,77.90
2022-07-25T20:33:36.148Z,78.40
2022-07-25T20:36:04.445Z,78.60
2022-07-25T20:38:32.899Z,78.90
2022-07-25T20:41:01.359Z,79.20
2022-07-25T20:43:29.849Z,79.40
2022-07-25T20:45:59.146Z,79.70
2022-07-25T20:48:27.502Z,79.90
2022-07-25T20:50:56.966Z,80.30
2022-07-25T20:53:25.066Z,80.50
2022-07-25T20:55:53.203Z,80.50
2022-07-25T20:58:21.289Z,80.60
2022-07-25T21:00:49.586Z,80.90
2022-07-25T21:03:17.698Z,81.30
2022-07-25T21:05:45.783Z,81.60
2022-07-25T21:08:15.398Z,82.00
2022-07-25T21:10:43.847Z,82.20
2022-07-25T21:13:11.870Z,82.30
2022-07-25T21:15:40.012Z,82.60
2022-07-25T21:18:07.993Z,82.90
2022-07-25T21:20:37.288Z,83.20
2022-07-25T21:23:06.187Z,83.40
2022-07-25T21:25:35.551Z,83.90
2022-07-25T21:28:03.532Z,84.30
2022-07-25T21:30:31.612Z,84.40
2022-07-25T21:32:59.666Z,84.70
2022-07-25T21:35:27.675Z,85.00
2022-07-25T21:37:55.873Z,85.20
2022-07-25T21:40:24.180Z,85.40
2022-07-25T21:42:53.715Z,85.60
2022-07-25T21:45:21.755Z,85.70
2022-07-25T21:47:49.763Z,85.80
2022-07-25T21:50:35.124Z,86.00
2022-07-25T21:53:12.534Z,86.10
2022-07-25T21:55:41.683Z,86.20
2022-07-25T21:58:11.019Z,86.20
2022-07-25T22:00:43.859Z,86.40
2022-07-25T22:03:13.758Z,86.80
2022-07-25T22:05:41.886Z,87.10
2022-07-25T22:08:09.909Z,87.40
2022-07-25T22:10:38.029Z,87.60
2022-07-25T22:13:08.277Z,87.90
2022-07-25T22:15:37.593Z,88.30
2022-07-25T22:18:05.944Z,88.70
2022-07-25T22:20:34.093Z,89.20
2022-07-25T22:23:02.144Z,89.50
2022-07-25T22:25:30.463Z,89.70
2022-07-25T22:27:58.519Z,89.80
2022-07-25T22:30:26.783Z,90.10
2022-07-25T22:32:56.280Z,90.30
2022-07-25T22:35:24.291Z,90.40
2022-07-25T22:37:52.736Z,90.50
2022-07-25T22:40:21.620Z,90.50
2022-07-25T22:42:49.765Z,90.60
2022-07-25T22:45:20.017Z,90.70
2022-07-25T22:47:48.123Z,90.70
2022-07-25T22:50:17.970Z,90.70
2022-07-25T22:52:46.115Z,90.80
2022-07-25T22:55:14.251Z,91.00
2022-07-25T22:57:42.250Z,91.10
2022-07-25T23:00:12.203Z,91.20
2022-07-25T23:02:41.272Z,91.40
2022-07-25T23:05:10.269Z,91.50
2022-07-25T23:07:39.700Z,91.60
2022-07-25T23:10:09.068Z,91.60
2022-07-25T23:12:37.215Z,91.60
2022-07-25T23:15:06.169Z,91.70
2022-07-25T23:17:34.477Z,91.70
2022-07-25T23:20:02.492Z,91.80
2022-07-25T23:22:30.764Z,91.80
2022-07-25T23:25:00.324Z,91.80
2022-07-25T23:27:29.655Z,91.80
2022-07-25T23:30:03.585Z,91.90
2022-07-25T23:32:31.577Z,91.90
2022-07-25T23:34:59.658Z,92.00
2022-07-25T23:37:27.769Z,92.00
2022-07-25T23:39:56.303Z,91.90
2022-07-25T23:42:25.727Z,92.00
2022-07-25T23:44:53.822Z,92.00
2022-07-25T23:47:26.801Z,92.10
2022-07-25T23:50:08.169Z,92.10
2022-07-25T23:52:36.176Z,92.10
2022-07-25T23:55:04.385Z,92.10
2022-07-25T23:57:33.974Z,92.10
